Kruibeke, Belgium
Current Conditions -  °F | °C
As of 9:50 AM on Wednesday 22 Oct 2014 (Local Time) from EBAW Reporting Station
Broken Clouds Broken Clouds  
Wind Chill: 50°   Ceiling: 4800
Heat Index: 50°   Visibility: 6mi
Dew Point: 43°   Wind: 21mph
Humidity: 76%   Direction: 300°WNW
Pressure: 30.09"   Gusts: NA
Location:  51.17°N, 4.31°E
Report Text: EBAW 220750Z 30018KT 9999 FEW025 SCT028 BKN048 10/06 Q1019 TEMPO 30015G28KT 4500 SHRA
Loading
Personal Weather Stations






























Interactive Weather Map New forecast layout! Learn more

10-Day Weather Forecast

Advertisements
Track Severe Weather on mobile